createdAt,value
2023-12-11T05:00:11.784Z,4.39
2023-12-11T05:03:14.468Z,4.39
2023-12-11T05:06:16.773Z,4.12
2023-12-11T05:09:19.332Z,4.05
2023-12-11T05:12:21.770Z,3.99
2023-12-11T05:15:24.255Z,4.19
2023-12-11T05:18:26.456Z,4.43
2023-12-11T05:21:28.965Z,4.44
2023-12-11T05:24:31.245Z,4.81
2023-12-11T05:27:34.277Z,4.80
2023-12-11T05:30:36.593Z,4.46
2023-12-11T05:33:39.216Z,4.61
2023-12-11T05:36:41.547Z,4.80
2023-12-11T05:39:54.034Z,4.69
2023-12-11T05:43:00.276Z,4.57
2023-12-11T05:46:02.834Z,4.79
2023-12-11T05:49:05.125Z,4.86
2023-12-11T05:52:09.977Z,5.04
2023-12-11T05:55:13.049Z,5.19
2023-12-11T05:58:15.755Z,5.51
2023-12-11T06:01:18.255Z,5.48
2023-12-11T06:04:20.865Z,4.84
2023-12-11T06:07:23.148Z,4.86
2023-12-11T06:10:25.706Z,4.51
2023-12-11T06:13:27.945Z,5.26
2023-12-11T06:16:30.751Z,5.24
2023-12-11T06:19:33.041Z,5.01
2023-12-11T06:22:35.518Z,4.78
2023-12-11T06:25:37.953Z,5.41
2023-12-11T06:28:40.757Z,5.04
2023-12-11T06:31:42.944Z,5.47
2023-12-11T06:34:45.597Z,5.41
2023-12-11T06:37:47.844Z,5.48
2023-12-11T06:40:50.400Z,5.43
2023-12-11T06:43:54.893Z,5.60
2023-12-11T06:46:58.090Z,5.24
2023-12-11T06:50:01.726Z,5.44
2023-12-11T06:53:04.378Z,5.19
2023-12-11T06:56:06.943Z,5.50
2023-12-11T06:59:09.453Z,5.60
2023-12-11T07:02:11.794Z,5.37
2023-12-11T07:05:14.939Z,5.31
2023-12-11T07:08:17.329Z,5.18
2023-12-11T07:11:20.558Z,5.26
2023-12-11T07:14:24.621Z,5.29
2023-12-11T07:17:27.416Z,5.11
2023-12-11T07:20:29.709Z,5.11
2023-12-11T07:23:32.213Z,4.90
2023-12-11T07:26:34.622Z,4.90
2023-12-11T07:29:37.281Z,4.98
2023-12-11T07:32:39.514Z,5.34
2023-12-11T07:35:42.089Z,5.48
2023-12-11T07:38:44.348Z,5.66
2023-12-11T07:41:47.209Z,5.33
2023-12-11T07:44:49.411Z,4.94
2023-12-11T07:47:52.095Z,4.97
2023-12-11T07:50:54.466Z,5.43
2023-12-11T07:53:59.831Z,5.65
2023-12-11T07:57:02.223Z,5.69
2023-12-11T08:00:05.926Z,5.21
2023-12-11T08:03:09.760Z,5.51
2023-12-11T08:06:13.110Z,5.72
2023-12-11T08:09:15.909Z,5.63
2023-12-11T08:12:18.722Z,5.72
2023-12-11T08:15:22.203Z,5.84
2023-12-11T08:18:24.837Z,6.11
2023-12-11T08:21:27.100Z,5.79
2023-12-11T08:24:29.700Z,5.97
2023-12-11T08:27:32.153Z,5.94
2023-12-11T08:30:35.328Z,5.73
2023-12-11T08:33:38.119Z,5.44
2023-12-11T08:36:41.063Z,5.64
2023-12-11T08:39:43.333Z,5.35
2023-12-11T08:42:46.175Z,5.61
2023-12-11T08:45:49.188Z,5.63
2023-12-11T08:48:52.460Z,5.26
2023-12-11T08:51:55.340Z,5.25
2023-12-11T08:54:57.899Z,5.39
2023-12-11T08:58:00.322Z,5.27
2023-12-11T09:01:04.682Z,5.24
2023-12-11T09:04:07.604Z,5.06
2023-12-11T09:07:11.036Z,5.23
2023-12-11T09:10:13.422Z,5.14
2023-12-11T09:13:16.248Z,5.27
2023-12-11T09:16:18.652Z,5.70
2023-12-11T09:19:31.793Z,5.50
2023-12-11T09:22:42.766Z,5.55
2023-12-11T09:25:45.621Z,5.54
2023-12-11T09:28:51.801Z,5.42
2023-12-11T09:31:55.145Z,5.53
2023-12-11T09:34:57.800Z,5.60
2023-12-11T09:38:00.460Z,5.55
2023-12-11T09:41:04.894Z,5.77
2023-12-11T09:44:09.490Z,5.92
2023-12-11T09:47:21.355Z,6.18
2023-12-11T09:50:25.100Z,6.78
2023-12-11T09:53:31.297Z,6.70
2023-12-11T09:56:34.168Z,6.18
2023-12-11T09:59:38.352Z,6.25
2023-12-11T10:02:42.154Z,6.58
2023-12-11T10:05:44.852Z,6.77
2023-12-11T10:08:54.002Z,6.80
2023-12-11T10:12:01.863Z,6.32
2023-12-11T10:15:04.849Z,6.23
2023-12-11T10:18:13.773Z,6.13
2023-12-11T10:21:16.457Z,6.01
2023-12-11T10:24:18.996Z,6.16
2023-12-11T10:27:25.917Z,6.42
2023-12-11T10:30:28.848Z,6.11
2023-12-11T10:33:32.719Z,6.45
2023-12-11T10:36:35.482Z,6.61
2023-12-11T10:39:38.298Z,6.42
2023-12-11T10:42:41.571Z,6.92
2023-12-11T10:45:46.385Z,7.00
2023-12-11T10:48:50.130Z,6.75
2023-12-11T10:51:52.533Z,6.78
2023-12-11T10:54:56.336Z,6.59
2023-12-11T10:57:59.299Z,6.78
2023-12-11T11:01:03.029Z,6.53
2023-12-11T11:04:07.441Z,6.77
2023-12-11T11:07:21.579Z,6.49
2023-12-11T11:10:31.160Z,6.77
2023-12-11T11:14:01.752Z,6.99
2023-12-11T11:17:04.341Z,7.27
2023-12-11T11:20:20.454Z,6.97
2023-12-11T11:23:27.694Z,7.11
2023-12-11T11:26:37.602Z,6.87
2023-12-11T11:29:44.914Z,7.01
2023-12-11T11:32:57.995Z,7.18
2023-12-11T11:36:05.903Z,7.27
2023-12-11T11:39:08.371Z,7.44
2023-12-11T11:42:11.118Z,7.43
2023-12-11T11:45:14.846Z,7.49
2023-12-11T11:48:18.296Z,7.84
2023-12-11T11:51:23.024Z,7.71
2023-12-11T11:54:29.544Z,7.70
2023-12-11T11:57:33.590Z,7.51
2023-12-11T12:00:48.512Z,7.80
2023-12-11T12:03:54.557Z,7.53
2023-12-11T12:07:02.701Z,7.67
2023-12-11T12:10:08.929Z,7.79
2023-12-11T12:13:12.676Z,7.50
2023-12-11T12:16:30.775Z,7.57
2023-12-11T12:19:35.878Z,7.30
2023-12-11T12:23:05.054Z,7.17
2023-12-11T12:26:10.957Z,7.16
2023-12-11T12:29:15.625Z,7.30
2023-12-11T12:32:18.452Z,7.33
2023-12-11T12:35:28.829Z,7.40
2023-12-11T12:38:34.655Z,7.46
2023-12-11T12:41:44.525Z,7.24
2023-12-11T12:44:49.257Z,7.16
2023-12-11T12:47:51.874Z,7.26
2023-12-11T12:51:06.971Z,7.35
2023-12-11T12:54:15.256Z,7.19
2023-12-11T12:57:21.278Z,7.25
2023-12-11T13:00:24.358Z,7.32
2023-12-11T13:03:26.898Z,7.49
2023-12-11T13:06:29.642Z,7.73
2023-12-11T13:09:33.528Z,7.80
2023-12-11T13:12:36.765Z,7.95
2023-12-11T13:15:41.989Z,7.70
2023-12-11T13:18:44.600Z,7.58
2023-12-11T13:21:47.157Z,7.45
2023-12-11T13:24:49.716Z,7.35
2023-12-11T13:27:51.897Z,7.39
2023-12-11T13:30:54.565Z,7.15
2023-12-11T13:33:57.031Z,6.98
2023-12-11T13:36:59.921Z,6.96
2023-12-11T13:40:02.577Z,7.04
2023-12-11T13:43:05.351Z,7.23
2023-12-11T13:46:08.369Z,7.13
2023-12-11T13:49:11.149Z,7.43
2023-12-11T13:52:13.356Z,7.23
2023-12-11T13:55:15.922Z,7.26
2023-12-11T13:58:18.220Z,7.24
2023-12-11T14:01:21.117Z,7.07
2023-12-11T14:04:26.848Z,6.97
2023-12-11T14:07:29.445Z,6.93
2023-12-11T14:10:34.589Z,6.94
2023-12-11T14:13:37.072Z,6.85
2023-12-11T14:16:39.725Z,6.93
2023-12-11T14:19:42.121Z,7.23
2023-12-11T14:22:44.714Z,7.15
2023-12-11T14:25:47.598Z,7.32
2023-12-11T14:28:50.225Z,7.18
2023-12-11T14:31:52.443Z,6.99
2023-12-11T14:34:54.991Z,6.98
2023-12-11T14:37:57.759Z,7.08
2023-12-11T14:41:00.294Z,6.86
2023-12-11T14:44:02.477Z,7.17
2023-12-11T14:47:06.944Z,7.37
2023-12-11T14:50:11.259Z,7.01
2023-12-11T14:53:13.703Z,7.23
2023-12-11T14:56:15.828Z,7.11
2023-12-11T14:59:18.594Z,6.89
2023-12-11T15:02:20.858Z,6.82
2023-12-11T15:05:23.379Z,6.74
2023-12-11T15:08:27.224Z,6.64
2023-12-11T15:11:34.400Z,6.49
2023-12-11T15:14:37.291Z,6.88
2023-12-11T15:17:39.758Z,6.55
2023-12-11T15:20:41.973Z,6.37
2023-12-11T15:23:45.274Z,6.29
2023-12-11T15:26:47.473Z,6.52
2023-12-11T15:29:49.992Z,6.55
2023-12-11T15:32:52.263Z,6.28
2023-12-11T15:35:54.735Z,6.66
2023-12-11T15:38:56.937Z,6.55
2023-12-11T15:42:00.657Z,6.80
2023-12-11T15:45:03.804Z,6.59
2023-12-11T15:48:06.570Z,6.97
2023-12-11T15:51:19.154Z,6.86
2023-12-11T15:54:21.633Z,6.59
2023-12-11T15:57:23.957Z,6.98
2023-12-11T16:00:26.380Z,6.80
2023-12-11T16:03:28.954Z,7.16
2023-12-11T16:06:32.222Z,7.00
2023-12-11T16:09:34.981Z,6.87
2023-12-11T16:12:37.205Z,6.85
2023-12-11T16:15:39.663Z,6.75
2023-12-11T16:18:42.565Z,6.81
2023-12-11T16:21:45.319Z,6.59
2023-12-11T16:24:47.617Z,6.59
2023-12-11T16:27:50.127Z,6.59
2023-12-11T16:30:52.375Z,6.59
